Terminal Aerodrome Forecast
Issued by NWS

Home | Current Version | Previous Version | Text Only | Print | Product List | Glossary Off
Versions: 1 2 3 4 5 6 7 8 9 10 11 12 13

000
FTUS43 KMPX 131700
TAFRWF
TAF
KRWF 131739Z 1318/1418 19015G24KT P6SM SCT060
     FM140000 18010KT P6SM SKC
     FM140900 24007KT P6SM FEW200
     FM141500 28008KT P6SM BKN200=

USA.gov is the U.S. government's official web portal to all federal, state and local government web resources and services.